Time,TemperatureF,DewpointF,PressureIn,WindDirection,WindDirectionDegrees,WindSpeedMPH,WindSpeedGustMPH,Humidity,HourlyPrecipIn,Conditions,Clouds,dailyrainin,SoftwareType,DateUTC
2013-05-07 00:00:00,56.8,53.0,30.01,West,267,0.0,2.0,87,0.00,,,0.00,weatherlink.com 1.10,2013-05-07 05:00:00,
2013-05-07 00:15:00,56.5,53.0,30.01,West,267,0.0,0.0,88,0.00,,,0.00,weatherlink.com 1.10,2013-05-07 05:15:00,
2013-05-07 00:30:00,56.2,53.0,30.01,West,267,0.0,0.0,88,0.00,,,0.00,weatherlink.com 1.10,2013-05-07 05:30:00,
2013-05-07 00:45:00,56.1,53.0,30.01,West,267,0.0,0.0,88,0.00,,,0.00,weatherlink.com 1.10,2013-05-07 05:45:00,
2013-05-07 01:00:00,56.2,53.0,30.01,West,267,0.0,0.0,88,0.00,,,0.00,weatherlink.com 1.10,2013-05-07 06:00:00,
2013-05-07 01:15:00,56.3,53.0,30.01,West,267,0.0,0.0,88,0.00,,,0.00,weatherlink.com 1.10,2013-05-07 06:15:00,
2013-05-07 01:30:00,56.4,53.0,30.00,West,267,0.0,0.0,88,0.00,,,0.00,weatherlink.com 1.10,2013-05-07 06:30:00,
2013-05-07 01:45:00,56.9,53.0,30.00,West,267,0.0,0.0,88,0.00,,,0.00,weatherlink.com 1.10,2013-05-07 06:45:00,
2013-05-07 02:00:00,57.1,54.0,29.99,West,267,0.0,0.0,88,0.00,,,0.00,weatherlink.com 1.10,2013-05-07 07:00:00,
2013-05-07 02:15:00,57.3,54.0,29.99,West,267,0.0,0.0,88,0.00,,,0.00,weatherlink.com 1.10,2013-05-07 07:15:00,
2013-05-07 02:30:00,57.4,54.0,29.99,West,267,0.0,0.0,88,0.00,,,0.00,weatherlink.com 1.10,2013-05-07 07:30:00,
2013-05-07 02:45:00,57.7,54.0,29.99,West,267,0.0,0.0,88,0.00,,,0.00,weatherlink.com 1.10,2013-05-07 07:45:00,
2013-05-07 03:00:00,57.8,54.0,29.99,West,267,0.0,0.0,88,0.00,,,0.00,weatherlink.com 1.10,2013-05-07 08:00:00,
2013-05-07 03:15:00,57.8,54.0,29.99,West,267,0.0,0.0,88,0.00,,,0.00,weatherlink.com 1.10,2013-05-07 08:15:00,
2013-05-07 03:30:00,57.8,54.0,30.00,West,267,0.0,0.0,88,0.00,,,0.00,weatherlink.com 1.10,2013-05-07 08:30:00,
2013-05-07 03:45:00,58.0,55.0,30.00,West,267,0.0,0.0,88,0.00,,,0.00,weatherlink.com 1.10,2013-05-07 08:45:00,
2013-05-07 04:00:00,58.0,55.0,30.01,West,267,0.0,0.0,88,0.00,,,0.00,weatherlink.com 1.10,2013-05-07 09:00:00,
2013-05-07 04:15:00,58.0,55.0,30.01,West,267,0.0,0.0,88,0.00,,,0.00,weatherlink.com 1.10,2013-05-07 09:15:00,
2013-05-07 04:30:00,58.0,55.0,30.01,West,267,0.0,0.0,88,0.00,,,0.00,weatherlink.com 1.10,2013-05-07 09:30:00,
2013-05-07 04:45:00,58.0,55.0,30.01,West,267,0.0,0.0,88,0.00,,,0.00,weatherlink.com 1.10,2013-05-07 09:45:00,
2013-05-07 05:00:00,57.9,55.0,30.01,West,267,0.0,0.0,89,0.00,,,0.00,weatherlink.com 1.10,2013-05-07 10:00:00,
2013-05-07 05:15:00,58.0,55.0,30.01,West,267,0.0,0.0,89,0.00,,,0.00,weatherlink.com 1.10,2013-05-07 10:15:00,
2013-05-07 05:30:00,58.0,55.0,30.01,West,267,0.0,0.0,89,0.00,,,0.00,weatherlink.com 1.10,2013-05-07 10:30:00,
2013-05-07 05:45:00,57.8,55.0,30.02,West,267,0.0,0.0,89,0.00,,,0.00,weatherlink.com 1.10,2013-05-07 10:45:00,
2013-05-07 06:00:00,57.3,54.0,30.02,West,267,0.0,0.0,89,0.00,,,0.00,weatherlink.com 1.10,2013-05-07 11:00:00,
2013-05-07 06:15:00,56.7,54.0,30.03,West,267,0.0,0.0,89,0.00,,,0.00,weatherlink.com 1.10,2013-05-07 11:15:00,
2013-05-07 06:30:00,56.0,53.0,30.03,West,267,0.0,0.0,89,0.00,,,0.00,weatherlink.com 1.10,2013-05-07 11:30:00,
2013-05-07 06:45:00,55.5,52.0,30.04,West,267,0.0,0.0,89,0.00,,,0.00,weatherlink.com 1.10,2013-05-07 11:45:00,
2013-05-07 07:00:00,55.1,52.0,30.04,West,267,0.0,0.0,89,0.00,,,0.00,weatherlink.com 1.10,2013-05-07 12:00:00,
2013-05-07 07:15:00,54.9,52.0,30.04,West,267,0.0,0.0,89,0.00,,,0.00,weatherlink.com 1.10,2013-05-07 12:15:00,
2013-05-07 07:30:00,55.3,52.0,30.05,West,267,0.0,0.0,89,0.00,,,0.00,weatherlink.com 1.10,2013-05-07 12:30:00,
2013-05-07 07:45:00,56.2,53.0,30.05,West,267,0.0,0.0,89,0.00,,,0.00,weatherlink.com 1.10,2013-05-07 12:45:00,
2013-05-07 08:00:00,56.8,54.0,30.05,West,267,0.0,0.0,89,0.00,,,0.00,weatherlink.com 1.10,2013-05-07 13:00:00,
2013-05-07 08:15:00,57.5,54.0,30.06,West,267,0.0,0.0,88,0.00,,,0.00,weatherlink.com 1.10,2013-05-07 13:15:00,
2013-05-07 08:30:00,59.1,56.0,30.06,West,267,0.0,0.0,88,0.00,,,0.00,weatherlink.com 1.10,2013-05-07 13:30:00,
2013-05-07 08:46:00,61.7,58.0,30.06,West,267,0.0,0.0,87,0.00,,,0.00,weatherlink.com 1.10,2013-05-07 13:46:00,
2013-05-07 09:01:00,64.5,58.0,30.06,West,267,0.0,1.0,80,0.00,,,0.00,weatherlink.com 1.10,2013-05-07 14:01:00,
2013-05-07 09:16:00,66.2,59.0,30.06,West,267,0.0,2.0,77,0.00,,,0.00,weatherlink.com 1.10,2013-05-07 14:16:00,
2013-05-07 09:31:00,68.2,59.0,30.07,West,267,0.0,1.0,73,0.00,,,0.00,weatherlink.com 1.10,2013-05-07 14:31:00,
2013-05-07 09:46:00,71.1,60.0,30.06,West,267,0.0,1.0,68,0.00,,,0.00,weatherlink.com 1.10,2013-05-07 14:46:00,
2013-05-07 10:01:00,72.6,61.0,30.06,West,259,0.0,1.0,66,0.00,,,0.00,weatherlink.com 1.10,2013-05-07 15:01:00,
2013-05-07 10:16:00,74.7,62.0,30.06,WSW,255,0.0,1.0,65,0.00,,,0.00,weatherlink.com 1.10,2013-05-07 15:16:00,
2013-05-07 10:31:00,76.4,60.0,30.06,SW,226,0.0,2.0,57,0.00,,,0.00,weatherlink.com 1.10,2013-05-07 15:31:00,
2013-05-07 10:46:00,77.4,58.0,30.06,SSW,208,0.0,3.0,51,0.00,,,0.00,weatherlink.com 1.10,2013-05-07 15:46:00,
2013-05-07 11:01:00,78.3,59.0,30.06,SSW,197,0.0,3.0,51,0.00,,,0.00,weatherlink.com 1.10,2013-05-07 16:01:00,
2013-05-07 11:16:00,79.2,59.0,30.06,SE,124,0.0,1.0,50,0.00,,,0.00,weatherlink.com 1.10,2013-05-07 16:16:00,
2013-05-07 11:31:00,79.4,57.0,30.06,SE,139,0.0,1.0,46,0.00,,,0.00,weatherlink.com 1.10,2013-05-07 16:31:00,
2013-05-07 11:46:00,80.0,59.0,30.06,SSE,159,0.0,2.0,49,0.00,,,0.00,weatherlink.com 1.10,2013-05-07 16:46:00,
2013-05-07 12:01:00,80.2,56.0,30.06,WSW,251,0.0,2.0,43,0.00,,,0.00,weatherlink.com 1.10,2013-05-07 17:01:00,
2013-05-07 12:16:00,79.9,53.0,30.05,SSE,153,0.0,4.0,39,0.00,,,0.00,weatherlink.com 1.10,2013-05-07 17:16:00,
2013-05-07 12:31:00,79.5,53.0,30.05,SSE,159,3.0,7.0,40,0.00,,,0.00,weatherlink.com 1.10,2013-05-07 17:31:00,
2013-05-07 12:46:00,80.0,52.0,30.05,East,100,0.0,7.0,38,0.00,,,0.00,weatherlink.com 1.10,2013-05-07 17:46:00,
2013-05-07 13:01:00,81.3,56.0,30.04,SE,134,0.0,4.0,42,0.00,,,0.00,weatherlink.com 1.10,2013-05-07 18:01:00,
2013-05-07 13:16:00,80.2,54.0,30.04,WNW,293,0.0,5.0,41,0.00,,,0.00,weatherlink.com 1.10,2013-05-07 18:16:00,
2013-05-07 13:31:00,81.9,55.0,30.03,ESE,118,0.0,5.0,40,0.00,,,0.00,weatherlink.com 1.10,2013-05-07 18:31:00,
2013-05-07 13:46:00,81.3,57.0,30.02,WNW,284,0.0,4.0,43,0.00,,,0.00,weatherlink.com 1.10,2013-05-07 18:46:00,
2013-05-07 14:01:00,82.3,55.0,30.02,ESE,103,1.0,3.0,39,0.00,,,0.00,weatherlink.com 1.10,2013-05-07 19:01:00,
2013-05-07 14:16:00,82.7,56.0,30.02,NW,315,0.0,3.0,40,0.00,,,0.00,weatherlink.com 1.10,2013-05-07 19:16:00,
2013-05-07 14:31:00,83.5,59.0,30.02,West,275,0.0,2.0,44,0.00,,,0.00,weatherlink.com 1.10,2013-05-07 19:31:00,
2013-05-07 14:47:00,83.6,55.0,30.01,WNW,283,0.0,4.0,38,0.00,,,0.00,weatherlink.com 1.10,2013-05-07 19:47:00,
2013-05-07 15:02:00,84.1,54.0,30.00,SE,146,0.0,3.0,35,0.00,,,0.00,weatherlink.com 1.10,2013-05-07 20:02:00,
2013-05-07 15:17:00,84.8,54.0,29.99,South,181,0.0,3.0,35,0.00,,,0.00,weatherlink.com 1.10,2013-05-07 20:17:00,
2013-05-07 15:32:00,83.9,52.0,29.99,North,359,2.0,4.0,33,0.00,,,0.00,weatherlink.com 1.10,2013-05-07 20:32:00,
2013-05-07 15:47:00,84.5,52.0,29.98,SW,217,0.0,3.0,33,0.00,,,0.00,weatherlink.com 1.10,2013-05-07 20:47:00,
2013-05-07 16:02:00,83.8,55.0,29.98,ESE,102,0.0,5.0,37,0.00,,,0.00,weatherlink.com 1.10,2013-05-07 21:02:00,
2013-05-07 16:17:00,83.8,53.0,29.98,SSE,150,0.0,3.0,35,0.00,,,0.00,weatherlink.com 1.10,2013-05-07 21:17:00,
2013-05-07 16:32:00,84.3,54.0,29.97,SSE,149,0.0,2.0,35,0.00,,,0.00,weatherlink.com 1.10,2013-05-07 21:32:00,
2013-05-07 16:47:00,84.8,54.0,29.97,SSE,154,0.0,1.0,35,0.00,,,0.00,weatherlink.com 1.10,2013-05-07 21:47:00,
2013-05-07 17:02:00,84.6,54.0,29.97,South,184,0.0,3.0,35,0.00,,,0.00,weatherlink.com 1.10,2013-05-07 22:02:00,
2013-05-07 17:17:00,84.4,57.0,29.97,WNW,293,0.0,6.0,39,0.00,,,0.00,weatherlink.com 1.10,2013-05-07 22:17:00,
2013-05-07 17:32:00,85.0,54.0,29.97,WNW,292,0.0,1.0,35,0.00,,,0.00,weatherlink.com 1.10,2013-05-07 22:32:00,
2013-05-07 17:47:00,85.0,55.0,29.96,SW,216,0.0,2.0,36,0.00,,,0.00,weatherlink.com 1.10,2013-05-07 22:47:00,
2013-05-07 18:02:00,84.6,53.0,29.96,SSW,207,0.0,1.0,34,0.00,,,0.00,weatherlink.com 1.10,2013-05-07 23:02:00,
2013-05-07 18:17:00,84.4,54.0,29.96,SSW,207,0.0,1.0,35,0.00,,,0.00,weatherlink.com 1.10,2013-05-07 23:17:00,
2013-05-07 18:32:00,82.7,55.0,29.96,SSW,207,0.0,1.0,39,0.00,,,0.00,weatherlink.com 1.10,2013-05-07 23:32:00,
2013-05-07 18:47:00,81.8,56.0,29.96,SSW,207,0.0,0.0,41,0.00,,,0.00,weatherlink.com 1.10,2013-05-07 23:47:00,
2013-05-07 19:02:00,80.4,57.0,29.96,SSW,207,0.0,0.0,45,0.00,,,0.00,weatherlink.com 1.10,2013-05-08 00:02:00,
2013-05-07 19:17:00,79.0,58.0,29.96,SSW,207,0.0,0.0,49,0.00,,,0.00,weatherlink.com 1.10,2013-05-08 00:17:00,
2013-05-07 19:32:00,77.0,58.0,29.97,SSW,207,0.0,0.0,53,0.00,,,0.00,weatherlink.com 1.10,2013-05-08 00:32:00,
2013-05-07 19:47:00,74.4,59.0,29.97,SSW,207,0.0,0.0,58,0.00,,,0.00,weatherlink.com 1.10,2013-05-08 00:47:00,
2013-05-07 20:02:00,72.8,59.0,29.97,SSW,207,0.0,0.0,62,0.00,,,0.00,weatherlink.com 1.10,2013-05-08 01:02:00,
2013-05-07 20:17:00,70.7,58.0,29.97,SSW,207,0.0,0.0,65,0.00,,,0.00,weatherlink.com 1.10,2013-05-08 01:17:00,
2013-05-07 20:32:00,69.2,59.0,29.98,SSW,207,0.0,0.0,69,0.00,,,0.00,weatherlink.com 1.10,2013-05-08 01:32:00,
2013-05-07 20:47:00,68.2,58.0,29.98,SSW,207,0.0,0.0,71,0.00,,,0.00,weatherlink.com 1.10,2013-05-08 01:47:00,
2013-05-07 21:02:00,67.4,58.0,29.98,SSW,207,0.0,0.0,73,0.00,,,0.00,weatherlink.com 1.10,2013-05-08 02:02:00,
2013-05-07 21:17:00,66.7,58.0,29.99,SSW,207,0.0,0.0,74,0.00,,,0.00,weatherlink.com 1.10,2013-05-08 02:17:00,
2013-05-07 21:32:00,66.3,59.0,29.99,SSW,207,0.0,0.0,77,0.00,,,0.00,weatherlink.com 1.10,2013-05-08 02:32:00,
2013-05-07 21:47:00,66.0,59.0,30.00,SSW,207,0.0,0.0,78,0.00,,,0.00,weatherlink.com 1.10,2013-05-08 02:47:00,
2013-05-07 22:02:00,65.4,59.0,30.00,SSW,207,0.0,0.0,80,0.00,,,0.00,weatherlink.com 1.10,2013-05-08 03:02:00,
2013-05-07 22:17:00,64.7,59.0,30.00,SSW,207,0.0,0.0,82,0.00,,,0.00,weatherlink.com 1.10,2013-05-08 03:17:00,
2013-05-07 22:32:00,64.1,59.0,30.00,SSW,207,0.0,0.0,83,0.00,,,0.00,weatherlink.com 1.10,2013-05-08 03:32:00,
2013-05-07 22:47:00,63.6,59.0,30.01,SSW,207,0.0,0.0,84,0.00,,,0.00,weatherlink.com 1.10,2013-05-08 03:47:00,
2013-05-07 23:02:00,63.0,59.0,30.01,SSW,207,0.0,1.0,85,0.00,,,0.00,weatherlink.com 1.10,2013-05-08 04:02:00,
2013-05-07 23:17:00,62.9,58.0,30.01,SSW,207,0.0,0.0,85,0.00,,,0.00,weatherlink.com 1.10,2013-05-08 04:17:00,
2013-05-07 23:32:00,63.0,59.0,30.01,SSW,207,0.0,0.0,86,0.00,,,0.00,weatherlink.com 1.10,2013-05-08 04:32:00,
2013-05-07 23:47:00,63.1,59.0,30.01,SSW,207,0.0,0.0,86,0.00,,,0.00,weatherlink.com 1.10,2013-05-08 04:47:00,